Time;durP1;ratioP1;P1;durP2;ratioP2;P2;SDS_P1;SDS_P2;PMS_P1;PMS_P2;Temp;Humidity;BMP_temperature;BMP_pressure;BME280_temperature;BME280_humidity;BME280_pressure;Samples;Min_cycle;Max_cycle;Signal;HPM_P1;HPM_P2
2021/06/28 00:00:28;;;;;;;6.57;4.78;;;;;;;16.81;74.41;100658.78;5048316;28;20044;-78
2021/06/28 00:02:54;;;;;;;6.68;4.40;;;;;;;16.79;74.12;100642.88;5046643;28;20408;-78
2021/06/28 00:05:20;;;;;;;6.28;4.75;;;;;;;16.81;74.04;100648.13;5045933;28;20029;-78
2021/06/28 00:07:46;;;;;;;4.97;4.32;;;;;;;16.81;73.73;100649.00;5048146;28;20422;-78
2021/06/28 00:10:18;;;;;;;6.50;4.38;;;;;;;16.82;73.65;100645.44;5047620;28;20030;-78
2021/06/28 00:12:44;;;;;;;5.60;4.70;;;;;;;16.81;73.84;100653.47;5045327;28;20040;-78
2021/06/28 00:15:13;;;;;;;5.53;4.85;;;;;;;16.77;73.97;100660.69;5046049;28;20037;-78
2021/06/28 00:17:39;;;;;;;7.55;5.30;;;;;;;16.73;73.80;100663.44;5047618;28;20021;-78
2021/06/28 00:20:06;;;;;;;5.57;4.50;;;;;;;16.70;73.78;100660.88;5046474;28;20116;-78
2021/06/28 00:22:31;;;;;;;7.85;5.03;;;;;;;16.63;74.97;100666.38;5046077;28;20032;-78
2021/06/28 00:24:57;;;;;;;7.28;4.97;;;;;;;16.50;75.20;100667.63;5047472;28;20406;-78
2021/06/28 00:27:23;;;;;;;6.13;4.40;;;;;;;16.47;75.21;100664.19;5048454;28;20037;-78
2021/06/28 00:29:50;;;;;;;6.32;5.30;;;;;;;16.49;75.03;100660.56;5046892;28;20159;-78
2021/06/28 00:32:15;;;;;;;5.70;4.53;;;;;;;16.48;75.47;100664.16;5042302;28;20533;-78
2021/06/28 00:34:40;;;;;;;5.35;4.80;;;;;;;16.45;74.64;100661.56;5046382;28;20036;-78
2021/06/28 00:37:06;;;;;;;5.72;5.13;;;;;;;16.35;75.58;100657.44;5048081;28;20041;-78
2021/06/28 00:39:31;;;;;;;5.78;4.63;;;;;;;16.26;75.78;100665.66;5045825;28;20045;-78
2021/06/28 00:41:56;;;;;;;7.07;4.75;;;;;;;16.24;75.59;100663.03;5045464;28;20036;-78
2021/06/28 00:44:22;;;;;;;5.70;5.07;;;;;;;16.24;75.89;100656.84;5047053;28;20032;-78
2021/06/28 00:46:47;;;;;;;6.25;5.57;;;;;;;16.21;76.28;100664.00;5045282;28;20033;-78
2021/06/28 00:49:12;;;;;;;15.77;5.15;;;;;;;16.25;75.75;100663.94;5045077;28;20051;-78
2021/06/28 00:51:37;;;;;;;8.32;5.43;;;;;;;16.28;75.62;100658.53;5047902;28;20119;-78
2021/06/28 00:54:03;;;;;;;5.88;5.20;;;;;;;16.26;75.79;100666.53;5044360;28;20025;-78
2021/06/28 00:56:29;;;;;;;7.55;6.00;;;;;;;16.24;75.52;100662.16;5045721;28;20549;-78
2021/06/28 00:58:55;;;;;;;6.30;5.28;;;;;;;16.20;75.41;100661.38;5047850;28;20039;-78
2021/06/28 01:01:20;;;;;;;7.28;5.53;;;;;;;16.18;75.91;100663.22;5045300;28;20030;-78
2021/06/28 01:03:46;;;;;;;6.22;5.13;;;;;;;16.14;75.74;100662.44;5045967;28;20377;-78
2021/06/28 01:06:14;;;;;;;5.70;4.68;;;;;;;16.15;75.63;100661.50;5046389;28;20376;-78
2021/06/28 01:08:39;;;;;;;6.50;4.95;;;;;;;16.12;76.17;100653.59;5045808;28;20033;-78
2021/06/28 01:11:05;;;;;;;8.15;5.80;;;;;;;16.03;76.74;100656.50;5044637;28;20033;-78
2021/06/28 01:13:32;;;;;;;6.65;5.55;;;;;;;15.89;78.12;100656.88;5047159;28;20037;-78
2021/06/28 01:16:01;;;;;;;11.27;8.20;;;;;;;15.89;78.24;100661.31;5045838;28;20104;-78
2021/06/28 01:18:26;;;;;;;7.63;6.82;;;;;;;15.92;78.40;100667.44;5044480;28;20059;-78
2021/06/28 01:20:52;;;;;;;6.20;5.60;;;;;;;15.99;77.72;100673.50;5046424;28;20057;-78
2021/06/28 01:23:21;;;;;;;6.95;6.05;;;;;;;16.05;78.36;100672.44;5045146;28;20479;-78
2021/06/28 01:25:50;;;;;;;7.93;5.40;;;;;;;15.99;78.56;100676.16;5040463;28;20037;-78
2021/06/28 01:28:16;;;;;;;7.57;6.38;;;;;;;16.08;78.49;100672.34;5044903;28;20116;-78
2021/06/28 01:30:41;;;;;;;7.72;6.68;;;;;;;16.16;78.43;100673.88;5047176;28;20102;-78
2021/06/28 01:33:07;;;;;;;8.05;6.55;;;;;;;16.25;78.41;100669.25;5045498;28;20065;-78
2021/06/28 01:35:32;;;;;;;7.22;6.43;;;;;;;16.35;78.62;100670.75;5044723;28;20060;-78
2021/06/28 01:37:57;;;;;;;6.30;5.32;;;;;;;16.37;76.91;100680.47;5046745;28;20032;-78
2021/06/28 01:40:23;;;;;;;6.93;5.20;;;;;;;16.39;76.42;100672.41;5045181;28;20037;-78
2021/06/28 01:42:50;;;;;;;7.13;6.22;;;;;;;16.35;77.17;100670.75;5044984;28;20103;-78
2021/06/28 01:45:19;;;;;;;6.85;6.00;;;;;;;16.36;77.67;100677.81;5045381;28;20040;-78
2021/06/28 01:47:46;;;;;;;6.32;5.35;;;;;;;16.38;77.92;100671.53;5028608;28;20072;-78
2021/06/28 01:50:12;;;;;;;8.07;6.60;;;;;;;16.43;77.31;100672.28;5042499;28;20041;-78
2021/06/28 01:52:38;;;;;;;7.18;6.07;;;;;;;16.44;77.84;100670.47;5042888;28;20487;-78
2021/06/28 01:55:07;;;;;;;8.00;5.68;;;;;;;16.43;77.63;100674.06;5045541;28;20033;-78
2021/06/28 01:57:33;;;;;;;8.32;6.40;;;;;;;16.47;77.52;100674.84;5040174;28;20156;-78
2021/06/28 02:00:00;;;;;;;8.05;6.45;;;;;;;16.44;77.72;100667.81;5044325;28;20033;-78
2021/06/28 02:02:25;;;;;;;6.60;5.80;;;;;;;16.52;77.68;100663.16;5046542;28;20101;-78
2021/06/28 02:04:51;;;;;;;7.90;6.30;;;;;;;16.58;77.57;100660.31;5044475;28;20520;-78
2021/06/28 02:07:16;;;;;;;7.15;6.45;;;;;;;16.69;77.29;100659.13;5043487;28;20132;-78
2021/06/28 02:09:41;;;;;;;8.13;7.28;;;;;;;16.78;77.37;100656.22;5045130;28;20032;-78
2021/06/28 02:12:08;;;;;;;8.20;6.38;;;;;;;16.85;77.02;100642.66;5042195;28;20033;-78
2021/06/28 02:14:34;;;;;;;8.15;7.35;;;;;;;16.95;76.67;100645.94;5043736;28;20041;-78
2021/06/28 02:16:59;;;;;;;8.10;7.18;;;;;;;17.00;76.50;100644.00;5046489;28;20051;-78
2021/06/28 02:19:25;;;;;;;8.38;6.95;;;;;;;16.98;76.88;100639.63;5044181;28;20037;-79
2021/06/28 02:21:52;;;;;;;7.53;6.70;;;;;;;16.96;77.13;100642.34;5043069;28;20052;-79
2021/06/28 02:24:17;;;;;;;7.20;6.40;;;;;;;16.98;77.06;100635.16;5045705;28;20095;-78
2021/06/28 02:26:44;;;;;;;9.55;6.97;;;;;;;16.95;76.84;100637.03;5045411;28;20041;-78
2021/06/28 02:29:09;;;;;;;9.40;7.20;;;;;;;17.02;76.66;100639.47;5044070;28;20060;-78
2021/06/28 02:31:35;;;;;;;8.73;7.03;;;;;;;17.06;76.58;100638.47;5046241;28;20041;-78
2021/06/28 02:34:01;;;;;;;8.00;7.18;;;;;;;17.07;76.24;100648.19;5045311;28;20380;-78
2021/06/28 02:36:27;;;;;;;7.72;6.75;;;;;;;17.07;76.26;100653.53;5047976;28;20037;-78
2021/06/28 02:38:57;;;;;;;9.43;7.03;;;;;;;17.06;75.95;100654.47;5047902;28;20028;-78
2021/06/28 02:41:23;;;;;;;8.10;6.70;;;;;;;17.02;76.44;100655.47;5051196;28;20506;-78
2021/06/28 02:43:50;;;;;;;9.00;7.20;;;;;;;17.04;75.59;100656.31;5044794;28;20048;-78
2021/06/28 02:46:16;;;;;;;9.63;6.72;;;;;;;17.03;75.93;100651.91;5048528;28;20065;-78
2021/06/28 02:48:42;;;;;;;8.52;6.53;;;;;;;17.04;76.06;100648.31;5049989;28;20041;-78
2021/06/28 02:51:09;;;;;;;7.28;6.57;;;;;;;17.06;76.20;100649.13;5049123;28;20048;-78
2021/06/28 02:53:35;;;;;;;8.57;6.78;;;;;;;17.02;76.65;100649.28;5049391;28;20065;-78
2021/06/28 02:56:13;;;;;;;6.53;5.75;;;;;;;17.04;76.51;100644.78;5050120;28;20094;-79
2021/06/28 02:58:56;;;;;;;7.95;6.38;;;;;;;17.10;75.95;100636.56;5050000;28;20126;-79
2021/06/28 03:01:24;;;;;;;10.55;8.23;;;;;;;17.12;75.53;100636.53;5050160;28;20029;-78
2021/06/28 03:03:50;;;;;;;7.63;6.68;;;;;;;17.16;75.15;100638.16;5048263;28;20480;-79
2021/06/28 03:06:16;;;;;;;8.65;7.75;;;;;;;17.22;75.16;100640.66;5047704;28;20045;-78
2021/06/28 03:08:42;;;;;;;10.27;8.45;;;;;;;17.28;74.83;100637.78;5051565;28;20113;-78
2021/06/28 03:11:08;;;;;;;12.55;10.73;;;;;;;17.35;74.74;100639.34;5050392;28;20467;-78
2021/06/28 03:13:34;;;;;;;12.00;9.95;;;;;;;17.40;74.54;100632.06;5051371;28;20064;-79
2021/06/28 03:16:00;;;;;;;10.77;8.80;;;;;;;17.39;74.81;100632.09;5048457;28;20410;-78
2021/06/28 03:18:25;;;;;;;12.15;7.45;;;;;;;17.34;74.69;100634.03;5049804;28;20178;-78
2021/06/28 03:20:52;;;;;;;10.27;7.03;;;;;;;17.31;75.13;100643.00;5051293;28;20581;-79
2021/06/28 03:23:18;;;;;;;9.98;7.20;;;;;;;17.35;75.06;100639.34;5048767;28;20036;-79
2021/06/28 03:25:43;;;;;;;7.65;6.43;;;;;;;17.41;74.77;100640.94;5049006;28;20033;-79
2021/06/28 03:28:09;;;;;;;7.82;7.03;;;;;;;17.47;74.39;100644.25;5050423;28;20086;-78
2021/06/28 03:30:34;;;;;;;9.63;7.97;;;;;;;17.48;74.80;100650.50;5047754;28;20492;-79
2021/06/28 03:32:59;;;;;;;8.45;7.63;;;;;;;17.52;74.80;100647.66;5046678;28;20061;-79
2021/06/28 03:35:25;;;;;;;8.98;7.90;;;;;;;17.60;74.02;100649.19;5048208;28;20128;-79
2021/06/28 03:37:50;;;;;;;10.55;8.85;;;;;;;17.64;74.11;100651.72;5044006;28;20037;-79
2021/06/28 03:40:16;;;;;;;10.35;6.95;;;;;;;17.63;74.06;100646.41;5049232;28;20025;-79
2021/06/28 03:42:42;;;;;;;7.75;6.95;;;;;;;17.64;74.28;100651.72;5048870;28;20484;-78
2021/06/28 03:45:10;;;;;;;9.85;7.85;;;;;;;17.64;74.45;100645.50;5050072;28;20033;-79
2021/06/28 03:47:36;;;;;;;8.73;7.75;;;;;;;17.67;74.12;100645.41;5049884;28;20052;-79
2021/06/28 03:50:04;;;;;;;10.48;9.48;;;;;;;17.73;73.89;100651.38;5045292;28;20045;-79
2021/06/28 03:52:29;;;;;;;10.15;8.48;;;;;;;17.77;74.27;100649.50;5050105;28;20036;-79
2021/06/28 03:54:54;;;;;;;11.18;6.93;;;;;;;17.85;73.80;100634.13;5046839;28;20072;-79
2021/06/28 03:57:20;;;;;;;10.45;8.30;;;;;;;17.92;73.98;100635.66;5049212;28;20029;-79
2021/06/28 03:59:45;;;;;;;11.70;10.57;;;;;;;18.00;73.62;100631.84;5050794;28;20090;-79
2021/06/28 04:02:10;;;;;;;15.05;11.85;;;;;;;18.12;73.04;100634.09;5047119;28;20041;-79
2021/06/28 04:04:36;;;;;;;9.65;8.73;;;;;;;18.22;72.66;100634.63;5045999;28;20123;-79
2021/06/28 04:07:02;;;;;;;8.40;7.50;;;;;;;18.27;72.85;100625.53;5045047;28;20045;-79
2021/06/28 04:09:27;;;;;;;11.90;8.98;;;;;;;18.35;72.61;100631.44;5050359;28;20120;-79
2021/06/28 04:11:52;;;;;;;14.15;12.40;;;;;;;18.45;72.04;100636.47;5048508;28;20044;-78
2021/06/28 04:14:17;;;;;;;10.85;9.68;;;;;;;18.47;72.05;100637.25;5048397;28;20041;-79
2021/06/28 04:16:43;;;;;;;11.93;8.52;;;;;;;18.54;71.89;100647.66;5050705;28;20037;-79
2021/06/28 04:19:08;;;;;;;11.98;9.43;;;;;;;18.60;71.89;100646.56;5049028;28;20511;-79
2021/06/28 04:21:34;;;;;;;8.93;7.82;;;;;;;18.66;71.82;100643.69;5049497;28;20432;-78
2021/06/28 04:24:03;;;;;;;9.32;7.68;;;;;;;18.74;71.66;100641.59;5049939;28;20502;-79
2021/06/28 04:26:29;;;;;;;9.48;8.48;;;;;;;18.75;71.70;100648.69;5047146;28;20041;-79
2021/06/28 04:28:55;;;;;;;8.70;7.88;;;;;;;18.73;71.89;100645.19;5046643;28;20029;-79
2021/06/28 04:31:20;;;;;;;10.52;8.55;;;;;;;18.73;71.42;100655.91;5048148;28;20025;-79
2021/06/28 04:33:46;;;;;;;10.10;9.07;;;;;;;18.78;70.89;100653.91;5048537;28;20123;-79
2021/06/28 04:36:11;;;;;;;16.35;11.57;;;;;;;18.87;70.49;100646.50;5046916;28;20073;-79
2021/06/28 04:38:36;;;;;;;12.45;11.15;;;;;;;18.94;70.10;100647.97;5048029;28;20033;-79
2021/06/28 04:41:02;;;;;;;14.25;9.88;;;;;;;18.96;70.00;100656.81;5049087;28;20040;-79
2021/06/28 04:43:27;;;;;;;16.70;13.80;;;;;;;19.01;69.61;100657.53;5047107;28;20034;-79
2021/06/28 04:45:52;;;;;;;13.32;11.93;;;;;;;19.10;69.30;100654.50;5049485;28;20139;-79
2021/06/28 04:48:18;;;;;;;11.27;10.05;;;;;;;19.14;69.16;100656.09;5049158;28;20044;-79
2021/06/28 04:50:44;;;;;;;12.38;10.32;;;;;;;19.16;68.51;100651.56;5046962;28;20077;-79
2021/06/28 04:53:09;;;;;;;11.40;10.18;;;;;;;19.17;68.44;100652.44;5048278;28;20078;-79
2021/06/28 04:55:34;;;;;;;12.35;10.68;;;;;;;19.20;68.44;100653.22;5048949;28;20040;-79
2021/06/28 04:58:00;;;;;;;11.93;10.50;;;;;;;19.30;67.72;100651.00;5045178;28;20489;-79
2021/06/28 05:00:26;;;;;;;16.20;13.13;;;;;;;19.38;67.86;100658.72;5048042;28;20544;-79
2021/06/28 05:02:51;;;;;;;12.98;11.60;;;;;;;19.49;67.23;100659.16;5047935;28;20083;-79
2021/06/28 05:05:17;;;;;;;10.45;8.93;;;;;;;19.55;66.80;100658.91;5041615;28;20042;-79
2021/06/28 05:07:43;;;;;;;10.05;9.05;;;;;;;19.58;67.43;100658.78;5042020;28;20041;-79
2021/06/28 05:10:09;;;;;;;10.48;8.90;;;;;;;19.68;67.96;100660.19;5042818;28;20036;-79
2021/06/28 05:12:35;;;;;;;10.57;9.35;;;;;;;19.68;67.77;100668.22;5038179;28;20123;-79
2021/06/28 05:15:01;;;;;;;10.57;9.60;;;;;;;19.75;67.35;100667.94;5042632;28;20108;-79
2021/06/28 05:17:26;;;;;;;11.65;10.45;;;;;;;19.79;67.26;100667.75;5042775;28;20032;-79
2021/06/28 05:19:52;;;;;;;10.65;9.32;;;;;;;19.77;66.66;100666.94;5040651;28;20099;-79
2021/06/28 05:22:17;;;;;;;12.45;9.57;;;;;;;19.96;66.89;100674.19;5041481;28;20086;-79
2021/06/28 05:24:43;;;;;;;9.73;8.73;;;;;;;20.04;67.38;100672.97;5042502;28;20128;-79
2021/06/28 05:27:09;;;;;;;9.18;8.27;;;;;;;20.24;66.47;100679.25;5041872;28;20064;-79
2021/06/28 05:29:34;;;;;;;9.57;8.48;;;;;;;20.37;65.64;100677.75;5042436;28;20025;-79
2021/06/28 05:32:00;;;;;;;14.23;11.48;;;;;;;20.42;65.02;100673.06;5044305;28;20037;-79
2021/06/28 05:34:25;;;;;;;16.20;12.10;;;;;;;20.38;65.47;100668.78;5040661;28;20503;-79
2021/06/28 05:36:50;;;;;;;12.38;11.07;;;;;;;20.35;65.86;100674.28;5041797;28;20029;-79
2021/06/28 05:39:16;;;;;;;11.45;10.35;;;;;;;20.44;65.54;100663.16;5043940;28;20037;-79
2021/06/28 05:41:42;;;;;;;12.10;10.95;;;;;;;20.50;65.38;100662.00;5041879;28;20040;-79
2021/06/28 05:44:07;;;;;;;13.60;9.20;;;;;;;20.62;64.52;100661.50;5041942;28;20034;-79
2021/06/28 05:46:33;;;;;;;9.65;8.65;;;;;;;20.69;64.03;100659.38;5043783;28;20029;-79
2021/06/28 05:48:58;;;;;;;15.02;8.77;;;;;;;20.81;63.80;100660.63;5038812;28;20041;-79
2021/06/28 05:51:23;;;;;;;10.85;9.40;;;;;;;20.96;64.19;100651.88;5042247;28;20047;-79
2021/06/28 05:53:53;;;;;;;12.57;10.77;;;;;;;21.21;63.75;100652.41;5041580;28;20037;-79
2021/06/28 05:56:24;;;;;;;11.32;10.10;;;;;;;21.38;63.24;100653.47;5024285;28;20044;-79
2021/06/28 05:58:49;;;;;;;9.65;8.70;;;;;;;21.49;62.81;100658.28;5043766;28;20040;-79
2021/06/28 06:01:16;;;;;;;10.05;8.05;;;;;;;21.54;62.79;100661.63;5042526;28;20124;-79
2021/06/28 06:03:42;;;;;;;10.63;9.52;;;;;;;21.63;62.69;100666.53;5041182;28;20049;-79
2021/06/28 06:06:07;;;;;;;11.52;10.30;;;;;;;21.65;62.56;100664.63;5043249;28;20037;-79
2021/06/28 06:08:35;;;;;;;11.90;10.57;;;;;;;21.83;61.34;100663.72;5040759;28;20036;-79
2021/06/28 06:11:01;;;;;;;12.52;11.32;;;;;;;22.02;60.87;100665.44;5040790;28;20071;-79
2021/06/28 06:13:27;;;;;;;10.98;9.98;;;;;;;22.10;60.94;100661.41;5043872;28;20072;-79
2021/06/28 06:15:54;;;;;;;10.52;8.68;;;;;;;22.11;60.35;100662.28;5041471;28;20029;-79
2021/06/28 06:18:20;;;;;;;10.82;9.77;;;;;;;22.19;60.84;100657.41;5039816;28;20045;-79
2021/06/28 06:20:46;;;;;;;9.90;8.98;;;;;;;22.35;60.71;100660.16;5041143;28;20052;-79
2021/06/28 06:23:13;;;;;;;14.00;12.75;;;;;;;22.55;60.48;100656.41;5044007;28;20032;-79
2021/06/28 06:25:40;;;;;;;13.07;10.65;;;;;;;22.65;60.14;100651.38;5039826;28;20118;-79
2021/06/28 06:28:05;;;;;;;10.63;9.63;;;;;;;22.75;59.50;100653.50;5041970;28;20030;-79
2021/06/28 06:30:31;;;;;;;10.90;9.73;;;;;;;22.82;58.97;100655.84;5041945;28;20490;-79
2021/06/28 06:32:56;;;;;;;13.60;12.18;;;;;;;22.90;59.18;100664.38;5041861;28;20079;-79
2021/06/28 06:35:22;;;;;;;12.07;10.02;;;;;;;22.95;58.44;100665.84;5040810;28;20128;-79
2021/06/28 06:37:53;;;;;;;11.82;10.73;;;;;;;22.96;58.46;100666.72;5043060;28;20463;-79
2021/06/28 06:40:18;;;;;;;10.63;9.55;;;;;;;22.91;58.10;100671.50;5043426;28;20072;-79
2021/06/28 06:42:44;;;;;;;10.07;8.93;;;;;;;22.87;57.74;100672.59;5042124;28;20029;-79
2021/06/28 06:45:10;;;;;;;11.27;9.88;;;;;;;22.98;58.30;100664.84;5040845;28;20116;-79
2021/06/28 06:47:36;;;;;;;10.05;9.05;;;;;;;23.05;57.51;100663.53;5041094;28;20121;-79
2021/06/28 06:50:01;;;;;;;12.10;10.88;;;;;;;23.01;57.66;100659.28;5043321;28;20546;-79
2021/06/28 06:52:26;;;;;;;10.23;9.27;;;;;;;22.99;57.47;100666.56;5041279;28;20073;-79
2021/06/28 06:54:52;;;;;;;12.02;10.90;;;;;;;22.96;57.96;100667.63;5039682;28;20064;-79
2021/06/28 06:57:17;;;;;;;9.63;8.55;;;;;;;23.03;58.68;100668.16;5042805;28;20495;-79
2021/06/28 06:59:43;;;;;;;8.95;8.05;;;;;;;23.08;59.16;100665.19;5037613;28;20033;-79
2021/06/28 07:02:08;;;;;;;10.55;9.55;;;;;;;23.23;58.88;100676.91;5042718;28;20410;-79
2021/06/28 07:04:34;;;;;;;15.52;12.98;;;;;;;23.31;58.45;100671.97;5040135;28;20041;-79
2021/06/28 07:07:00;;;;;;;13.73;11.88;;;;;;;23.38;57.63;100678.75;5042004;28;20038;-79
2021/06/28 07:09:27;;;;;;;12.57;11.32;;;;;;;23.38;56.78;100679.59;5042938;28;20087;-79
2021/06/28 07:11:52;;;;;;;10.18;9.20;;;;;;;23.44;57.01;100678.38;5035893;28;20040;-79
2021/06/28 07:14:17;;;;;;;11.95;10.75;;;;;;;23.48;55.78;100682.66;5041281;28;20041;-80
2021/06/28 07:16:43;;;;;;;13.55;12.15;;;;;;;23.53;55.99;100691.34;5042621;28;20037;-79
2021/06/28 07:19:10;;;;;;;12.45;11.13;;;;;;;23.54;56.10;100689.50;5040789;28;20032;-79
2021/06/28 07:21:36;;;;;;;15.10;13.55;;;;;;;23.70;54.34;100684.97;5044086;28;20055;-79
2021/06/28 07:24:02;;;;;;;15.77;9.50;;;;;;;23.83;54.57;100679.75;5046445;28;20052;-80
2021/06/28 07:26:28;;;;;;;12.68;11.48;;;;;;;24.03;54.26;100687.53;5044861;28;20239;-80
2021/06/28 07:28:53;;;;;;;21.65;19.48;;;;;;;24.25;53.26;100680.84;5044780;28;20128;-80
2021/06/28 07:31:19;;;;;;;14.00;12.57;;;;;;;24.47;52.98;100681.28;5046652;28;20078;-79
2021/06/28 07:33:44;;;;;;;16.38;14.65;;;;;;;24.63;52.78;100685.75;5044920;28;20388;-80
2021/06/28 07:36:10;;;;;;;14.63;13.32;;;;;;;24.81;52.33;100679.19;5044066;28;20017;-80
2021/06/28 07:38:37;;;;;;;11.98;10.55;;;;;;;24.95;51.66;100677.44;5046629;28;20180;-80
2021/06/28 07:41:03;;;;;;;9.45;8.55;;;;;;;25.14;51.29;100669.88;5044004;28;20064;-80
2021/06/28 07:43:28;;;;;;;10.52;8.77;;;;;;;25.19;50.89;100675.88;5043741;28;20037;-80
2021/06/28 07:45:54;;;;;;;11.27;9.32;;;;;;;25.17;51.38;100671.56;5040175;28;20044;-80
2021/06/28 07:48:20;;;;;;;14.73;13.32;;;;;;;25.27;51.13;100668.16;5043744;28;20037;-80
2021/06/28 07:50:46;;;;;;;9.70;8.80;;;;;;;25.46;49.35;100680.44;5046477;28;20037;-80
2021/06/28 07:53:11;;;;;;;11.20;9.50;;;;;;;25.62;48.40;100674.88;5044272;28;20072;-80
2021/06/28 07:55:37;;;;;;;9.95;8.95;;;;;;;25.81;47.59;100667.28;5044484;28;20419;-80
2021/06/28 07:58:04;;;;;;;14.60;12.68;;;;;;;25.97;47.93;100670.72;5046132;28;20025;-80
2021/06/28 08:00:29;;;;;;;6.15;5.30;;;;;;;26.10;45.96;100659.91;5044549;28;20069;-80
2021/06/28 08:02:54;;;;;;;11.00;9.90;;;;;;;26.24;46.22;100662.50;5042890;28;20063;-80
2021/06/28 08:05:20;;;;;;;13.80;12.60;;;;;;;26.45;45.88;100664.69;5045774;28;20086;-81
2021/06/28 08:07:45;;;;;;;8.18;7.38;;;;;;;26.56;44.75;100663.97;5044521;28;20033;-80
2021/06/28 08:10:14;;;;;;;11.27;9.75;;;;;;;26.68;45.29;100663.09;5044243;28;20049;-80
2021/06/28 08:12:44;;;;;;;12.23;11.07;;;;;;;26.69;45.14;100654.00;5036669;28;20030;-80
2021/06/28 08:15:10;;;;;;;14.93;12.27;;;;;;;26.78;45.12;100666.03;5043869;28;20046;-80
2021/06/28 08:17:36;;;;;;;9.90;8.93;;;;;;;26.80;43.74;100664.03;5044664;28;20041;-80
2021/06/28 08:20:01;;;;;;;8.75;7.95;;;;;;;26.84;43.77;100658.31;5043322;28;20036;-80
2021/06/28 08:22:26;;;;;;;11.02;9.88;;;;;;;26.98;43.36;100662.72;5043757;28;20407;-80
2021/06/28 08:24:52;;;;;;;9.75;8.65;;;;;;;27.12;43.75;100656.31;5045749;28;20120;-80
2021/06/28 08:27:17;;;;;;;19.50;14.73;;;;;;;27.20;43.96;100662.06;5044387;28;20140;-80
2021/06/28 08:29:43;;;;;;;12.68;11.25;;;;;;;27.34;42.30;100652.03;5042308;28;20550;-80
2021/06/28 08:32:09;;;;;;;8.50;7.60;;;;;;;27.47;40.48;100651.00;5045246;28;20403;-80
2021/06/28 08:34:34;;;;;;;10.88;9.77;;;;;;;27.57;39.60;100658.44;5044567;28;20044;-80
2021/06/28 08:37:00;;;;;;;10.10;9.00;;;;;;;27.60;39.03;100650.94;5043370;28;20057;-80
2021/06/28 08:39:28;;;;;;;4.40;3.17;;;;;;;27.61;37.83;100646.38;5044908;28;20036;-80
2021/06/28 08:41:53;;;;;;;6.35;3.92;;;;;;;27.54;36.18;100638.72;5045126;28;20235;-80
2021/06/28 08:44:19;;;;;;;8.30;7.38;;;;;;;27.62;38.22;100640.00;5042017;28;20578;-81
2021/06/28 08:46:45;;;;;;;9.77;7.32;;;;;;;27.76;37.84;100647.91;5043640;28;20041;-80
2021/06/28 08:49:11;;;;;;;6.00;4.00;;;;;;;27.80;36.69;100644.00;5040421;28;20120;-80
2021/06/28 08:51:37;;;;;;;7.13;6.35;;;;;;;27.85;36.50;100644.56;5045024;28;20377;-81
2021/06/28 08:54:09;;;;;;;10.82;8.93;;;;;;;27.98;37.22;100649.88;5044473;28;20163;-81
2021/06/28 08:56:39;;;;;;;8.30;7.50;;;;;;;28.12;36.63;100638.81;5041666;28;20033;-80
2021/06/28 08:59:06;;;;;;;7.65;6.47;;;;;;;28.09;36.23;100641.78;5043490;28;20033;-81
2021/06/28 09:01:33;;;;;;;9.43;8.48;;;;;;;28.23;36.87;100651.56;5044660;28;20041;-80
2021/06/28 09:03:58;;;;;;;9.63;8.65;;;;;;;28.36;37.33;100644.16;5042749;28;20033;-81
2021/06/28 09:06:28;;;;;;;8.85;7.95;;;;;;;28.52;36.85;100653.84;5043920;28;20052;-80
2021/06/28 09:09:01;;;;;;;4.78;4.10;;;;;;;28.58;35.80;100650.63;5046958;28;20044;-81
2021/06/28 09:11:27;;;;;;;6.93;6.32;;;;;;;28.53;36.09;100650.13;5044700;28;20032;-80
2021/06/28 09:13:55;;;;;;;7.35;5.68;;;;;;;28.60;35.84;100651.38;5043574;28;20038;-81
2021/06/28 09:16:22;;;;;;;8.00;3.20;;;;;;;28.58;35.07;100656.06;5043961;28;20480;-80
2021/06/28 09:18:59;;;;;;;6.05;3.00;;;;;;;28.56;34.48;100650.78;5044307;28;20037;-81
2021/06/28 09:21:37;;;;;;;4.20;3.30;;;;;;;28.67;35.04;100655.34;5045351;28;20064;-80
2021/06/28 09:24:04;;;;;;;10.25;9.23;;;;;;;28.76;35.82;100649.16;5023983;28;20037;-81
2021/06/28 09:26:37;;;;;;;5.60;5.07;;;;;;;28.91;35.05;100651.63;5047351;28;20056;-81
2021/06/28 09:29:06;;;;;;;10.43;7.40;;;;;;;29.16;35.51;100645.06;5051854;28;20059;-80
2021/06/28 09:31:42;;;;;;;14.25;12.40;;;;;;;29.38;35.40;100645.03;5049571;28;20049;-81
2021/06/28 09:34:12;;;;;;;20.77;15.82;;;;;;;29.58;34.49;100634.31;5050742;28;20037;-80
2021/06/28 09:36:50;;;;;;;4.97;4.10;;;;;;;29.63;32.87;100640.22;5048656;28;20041;-80
2021/06/28 09:39:20;;;;;;;5.82;4.82;;;;;;;29.56;33.32;100647.19;5026944;28;20086;-81
2021/06/28 09:41:46;;;;;;;10.85;9.75;;;;;;;29.60;33.94;100648.66;5043668;28;20140;-81
2021/06/28 09:44:12;;;;;;;7.32;6.53;;;;;;;29.73;33.73;100648.50;5044136;28;20395;-81
2021/06/28 09:46:37;;;;;;;13.10;11.80;;;;;;;29.85;34.06;100658.38;5043031;28;20037;-81
2021/06/28 09:49:05;;;;;;;11.57;10.50;;;;;;;30.03;33.74;100642.31;5043554;28;20044;-81
2021/06/28 09:51:36;;;;;;;4.43;3.60;;;;;;;29.99;31.73;100632.69;5047940;28;20039;-81
2021/06/28 09:54:08;;;;;;;5.00;4.43;;;;;;;29.97;33.19;100640.97;5024937;28;20045;-81
2021/06/28 09:56:40;;;;;;;13.05;11.75;;;;;;;30.23;33.11;100635.13;5052282;28;20034;-81
2021/06/28 09:59:36;;;;;;;17.05;13.95;;;;;;;30.20;32.55;100635.41;5042392;28;20037;-81
2021/06/28 10:02:12;;;;;;;6.38;5.60;;;;;;;30.30;31.60;100628.19;5042686;28;20044;-80
2021/06/28 10:04:45;;;;;;;4.00;3.53;;;;;;;30.42;31.77;100629.84;5042800;28;20033;-81
2021/06/28 10:07:24;;;;;;;8.60;7.70;;;;;;;30.41;31.43;100621.81;5050718;28;20429;-78
2021/06/28 10:10:08;;;;;;;6.25;4.10;;;;;;;30.38;31.62;100627.53;5042425;28;20037;-79
2021/06/28 10:12:38;;;;;;;11.82;9.70;;;;;;;30.48;32.43;100621.13;5021402;28;20061;-79
2021/06/28 10:15:06;;;;;;;10.35;9.10;;;;;;;30.80;32.35;100617.38;5046007;28;20039;-79
2021/06/28 10:17:32;;;;;;;12.60;10.43;;;;;;;31.10;31.65;100623.78;5028279;28;20029;-78
2021/06/28 10:19:58;;;;;;;8.35;7.55;;;;;;;31.18;31.45;100610.34;5039743;28;20044;-79
2021/06/28 10:22:25;;;;;;;12.90;10.52;;;;;;;31.45;30.44;100612.41;5017128;28;20036;-79
2021/06/28 10:24:50;;;;;;;7.03;5.68;;;;;;;31.59;29.08;100605.66;5039930;28;20041;-79
2021/06/28 10:27:16;;;;;;;13.18;11.77;;;;;;;31.70;30.01;100610.97;5042588;28;20170;-79
2021/06/28 10:29:42;;;;;;;12.45;11.20;;;;;;;32.04;30.12;100610.53;5043865;28;20069;-79
2021/06/28 10:32:10;;;;;;;9.50;8.45;;;;;;;32.33;29.18;100613.19;5043254;28;20038;-79
2021/06/28 10:34:39;;;;;;;11.93;10.77;;;;;;;32.40;29.26;100608.00;5045416;28;20041;-78
2021/06/28 10:37:33;;;;;;;7.65;6.57;;;;;;;32.20;28.44;100610.81;5045162;28;20033;-79
2021/06/28 10:40:02;;;;;;;12.32;9.38;;;;;;;31.81;29.49;100607.25;5026291;28;20038;-79
2021/06/28 10:42:33;;;;;;;5.30;4.43;;;;;;;31.71;29.12;100595.50;5045903;28;20031;-79
2021/06/28 10:44:59;;;;;;;9.43;6.70;;;;;;;31.68;29.95;100602.09;5045371;28;20041;-79
2021/06/28 10:47:26;;;;;;;9.02;7.53;;;;;;;31.59;29.37;100601.06;5044946;28;20125;-79
2021/06/28 10:49:52;;;;;;;20.58;14.75;;;;;;;31.59;30.49;100601.06;5043558;28;20030;-79
2021/06/28 10:52:45;;;;;;;6.72;5.55;;;;;;;31.82;28.83;100607.09;5045654;28;20498;-79
2021/06/28 10:55:17;;;;;;;5.22;4.72;;;;;;;31.90;29.01;100605.50;5042433;28;20507;-79
2021/06/28 10:57:43;;;;;;;9.55;7.30;;;;;;;32.03;29.33;100589.72;5046552;28;20044;-79
2021/06/28 11:00:09;;;;;;;5.50;3.60;;;;;;;31.86;28.69;100600.34;5048780;28;20053;-79
2021/06/28 11:02:38;;;;;;;5.28;4.38;;;;;;;31.53;29.15;100598.06;5047996;28;20571;-79
2021/06/28 11:05:07;;;;;;;8.20;6.32;;;;;;;31.54;28.52;100583.41;5039816;28;20044;-78
2021/06/28 11:07:45;;;;;;;4.97;4.10;;;;;;;31.60;29.49;100585.59;5042758;28;20068;-78
2021/06/28 11:10:26;;;;;;;5.85;5.15;;;;;;;31.73;29.43;100594.34;5057547;28;20065;-78
2021/06/28 11:12:55;;;;;;;6.05;5.28;;;;;;;31.57;29.73;100583.13;5040993;28;20116;-78
2021/06/28 11:15:20;;;;;;;10.05;7.70;;;;;;;31.68;28.89;100583.00;5041997;28;20041;-78
2021/06/28 11:17:46;;;;;;;12.80;11.40;;;;;;;31.97;29.36;100584.84;5044244;28;20033;-78